EDT,Max TemperatureF,Mean TemperatureF,Min TemperatureF,Max Dew PointF,MeanDew PointF,Min DewpointF,Max Humidity, Mean Humidity, Min Humidity, Max Sea Level PressureIn, Mean Sea Level PressureIn, Min Sea Level PressureIn, Max VisibilityMiles, Mean VisibilityMiles, Min VisibilityMiles, Max Wind SpeedMPH, Mean Wind SpeedMPH, Max Gust SpeedMPH,PrecipitationIn, CloudCover, Events, WindDirDegrees
2012-10-1,91,82,75,75,73,70,94,83,52,29.83,29.79,29.73,10,8,0,15,7,,0.52,4,Fog-Rain-Thunderstorm,163
2012-10-2,89,81,75,74,73,70,94,84,59,30.04,29.90,29.81,10,9,1,14,8,29,0.54,3,Rain,187
2012-10-3,90,82,73,74,72,69,93,81,55,30.18,30.10,30.03,10,10,1,16,6,26,0.21,4,Rain,188
2012-10-4,91,82,73,76,72,68,94,80,55,30.20,30.16,30.09,10,10,10,22,3,25,0.01,2,Thunderstorm,3
2012-10-5,89,80,73,74,72,71,94,84,61,30.14,30.06,29.99,10,10,8,12,4,18,0.07,2,Rain-Thunderstorm,16
2012-10-6,88,81,75,75,72,70,94,85,61,30.00,29.95,29.90,10,9,1,14,4,,0.51,3,Rain,23
2012-10-7,86,78,71,73,72,70,94,81,58,30.01,29.97,29.93,10,10,8,14,2,,0.00,2,Rain,79
2012-10-8,86,78,73,74,72,71,93,83,65,30.04,29.99,29.95,10,10,9,9,2,,0.01,1,Rain-Thunderstorm,73
2012-10-9,84,78,71,72,70,66,94,79,63,30.08,30.03,29.98,10,10,8,13,6,,0.00,4,,11
2012-10-10,84,76,69,66,64,59,87,72,43,30.13,30.08,30.05,10,10,9,10,6,,0.00,0,,6
2012-10-11,84,75,66,65,64,62,94,73,49,30.19,30.15,30.10,10,10,7,12,6,17,0.00,1,,21
2012-10-12,84,75,66,66,61,54,87,65,35,30.20,30.16,30.12,10,10,10,13,8,18,0.00,0,,10
2012-10-13,84,76,69,64,63,61,81,67,47,30.20,30.16,30.13,10,10,10,18,8,25,0.00,1,,41
2012-10-14,88,78,69,70,67,64,87,72,49,30.12,30.07,30.01,10,10,10,18,7,24,0.00,3,,66
2012-10-15,88,78,70,72,69,65,94,79,49,29.99,29.91,29.83,10,10,7,8,3,,0.00,2,,4
2012-10-16,84,76,69,69,64,61,90,71,49,29.89,29.85,29.81,10,10,10,10,5,,0.00,1,,7
2012-10-17,80,74,68,70,67,63,90,80,66,29.91,29.87,29.83,10,10,10,12,2,,0.00,3,Rain,54
2012-10-18,89,79,69,72,67,65,90,76,45,29.92,29.85,29.80,10,10,10,10,5,,0.00,4,,197
2012-10-19,88,76,66,70,66,62,93,72,43,29.88,29.85,29.80,10,10,7,8,4,,0.00,2,,266
2012-10-20,82,73,63,68,53,43,84,54,28,29.98,29.91,29.86,10,10,10,9,7,17,0.00,1,,317
2012-10-21,82,68,55,59,54,49,87,59,38,30.08,30.03,29.97,10,10,10,12,5,,0.00,0,,3
2012-10-22,84,74,64,63,61,59,87,68,44,30.11,30.07,30.04,10,10,10,17,7,23,0.00,2,,23
2012-10-23,82,74,66,63,61,59,81,66,46,30.07,30.04,30.01,10,10,10,17,6,22,0.00,4,,42
2012-10-24,87,78,69,70,67,64,94,78,49,30.05,29.99,29.96,10,8,2,22,8,28,0.37,5,Rain,57
2012-10-25,82,76,71,72,69,66,94,82,62,29.95,29.89,29.83,10,9,1,18,9,23,0.53,7,Rain,46
2012-10-26,82,76,69,67,65,63,88,73,52,29.81,29.67,29.61,10,8,1,30,16,71,0.54,7,Rain,18
2012-10-27,72,70,66,63,61,59,79,72,66,29.67,29.58,29.52,10,10,10,22,18,31,0.00,5,,319
2012-10-28,75,66,60,59,57,53,84,73,55,29.79,29.71,29.67,10,10,10,20,14,24,0.00,2,,290
2012-10-29,68,59,50,51,40,34,78,55,28,29.86,29.79,29.72,10,10,10,20,15,25,0.00,2,,291
2012-10-30,66,56,46,43,33,27,71,44,23,29.96,29.87,29.81,10,10,10,24,14,32,0.00,0,,276
2012-10-31,71,60,48,44,37,32,77,45,26,30.05,29.99,29.95,10,10,2,17,9,24,0.00,0,,280